x

8461490 - New London, Ct (nlnc3) Weather Station

9:30 - Thu 19th Jan 2017 All times are EST. -5 hours from GMT.

  • Wind
    3mph, 5mph gusts
  • Sea Temp 42°f
  • Aire Temp 39°f
  • Sea Pressure 1016.6mb
  • 8461490 - New London, Ct
  • 8461490 - New London, Ct

More Historic Weather Station data

Upgrade to MSW Pro to gain access to the past 30 days of data for over 8000 Wavebouys and Weather Stations around the globe.

Join Pro

Comparision Forecast

View Surf forecast
   
jue 01/19 9:30 3 5 mph 1016.6mb 42f 39f
9:24 3 7 mph 1016.5mb 42f 39f
9:18 3 5 mph 1016.6mb 42f 39f
9:12 2 5 mph 1016.6mb 42f 38f
9:06 3 5 mph 1016.6mb 42f 38f
9:00  -  2 mph 1016.5mb 42f 38f
8:54 1 2 mph 1016.4mb 42f 38f
8:48 1 2 mph 1016.3mb 42f 37f
8:42 1 2 mph 1016.2mb 42f 37f
8:36  -  3 mph 1016.3mb 42f 37f
8:30 2 3 mph 1016.3mb 42f 37f
8:24 2 3 mph 1016.4mb 42f 37f
8:18 1 3 mph 1016.4mb 42f 37f
8:12 2
mph
1016.4mb 42f 37f
8:06  -  mph 1016.3mb 42f 36f
8:00  -  1 mph 1016.2mb 42f 36f
7:54  -  1 mph 1016.2mb 42f 36f
7:48  -  1 mph 1016.2mb 42f 36f
7:42  -  1 mph 1016.2mb 42f 36f
7:36  -  2 mph 1016.2mb 42f 36f
7:30 1 2 mph 1016.4mb 42f 36f
7:24 2 3 mph 1016.4mb 42f 36f
7:18 2 3 mph 1016.3mb 42f 36f
7:12 1 2 mph 1016.2mb 42f 36f
7:06 2
mph
1016.2mb 42f 36f
7:00 2
mph
1016.3mb 42f 36f
6:54 2 3 mph 1016.3mb 42f 36f
6:48 2 3 mph 1016.2mb 42f 36f
6:42 2 3 mph 1016.2mb 42f 36f
6:36 2 3 mph 1016.2mb 42f 36f
6:30 2 3 mph 1016.2mb 42f 36f
6:24 2 3 mph 1016.2mb 42f 36f
6:18 1 3 mph 1016.2mb 42f 36f
6:12 3 5 mph 1016.3mb 42f 36f
6:06 2 5 mph 1016.3mb 42f 36f
6:00 2 3 mph 1016.2mb 42f 36f
5:54  -  2 mph 1016mb 42f 36f
5:48 1 2 mph 1015.9mb 42f 36f
5:42  -  2 mph 1015.9mb 42f 36f
5:36  -  2 mph 1015.9mb 42f 36f
5:30 2 3 mph 1015.9mb 42f 36f
5:24 1 5 mph 1016mb 42f 36f
5:18 5
mph
1016mb 42f 36f
5:12 5 6 mph 1015.9mb 42f 36f
5:06 5 6 mph 1016mb 42f 36f
5:00 3 6 mph 1015.9mb 42f 36f
4:54 5
mph
1015.9mb 42f 36f
4:48 3 6 mph 1015.8mb 42f 37f
4:42 5 6 mph 1015.9mb 42f 37f
4:36 3 5 mph 1015.9mb 42f 37f
4:30 3 5 mph 1016mb 42f 37f
4:24 3 6 mph 1016mb 42f 37f
4:18 3 6 mph 1016mb 42f 37f
4:12 3 6 mph 1015.9mb 42f 37f
4:06 2 5 mph 1016mb 42f 37f
4:00 2 6 mph 1015.9mb 42f 37f
3:54 3 6 mph 1015.9mb 42f 37f
3:48 2 5 mph 1016mb 42f 37f
3:42 2 5 mph 1015.9mb 42f 37f
3:36 2 6 mph 1016.1mb 42f 37f
3:30 2 5 mph 1016mb 42f 37f
3:24 2 6 mph 1016.1mb 42f 37f
3:18 3 7 mph 1016.2mb 42f 37f
3:12 3 6 mph 1016.2mb 42f 37f
3:06 5 8 mph 1016.2mb 42f 37f
3:00 3 7 mph 1016.2mb 42f 37f
2:54 3 8 mph 1016.2mb 42f 37f
2:48 6 8 mph 1016.3mb 42f 37f
2:42 5 7 mph 1016.2mb 42f 37f
2:36 6 7 mph 1016.2mb 42f 37f
2:30 5 7 mph 1016.1mb 42f 37f
2:24 5 7 mph 1016.1mb 42f 37f
2:18 3 5 mph 1016.1mb 42f 36f
2:12 2 5 mph 1015.9mb 42f 37f
2:06 1 6 mph 1015.9mb 42f 37f
2:00 3 7 mph 1016.2mb 42f 37f
1:54 5 7 mph 1016.1mb 42f 37f
1:48 3 7 mph 1016.2mb 42f 37f
1:42 6 9 mph 1016.1mb 42f 37f
1:36 3 6 mph 1016mb 42f 37f
1:30 3 7 mph 1015.8mb 42f 37f
1:24 3 6 mph 1015.8mb 42f 37f
1:18 3 7 mph 1015.7mb 42f 37f
1:12 5 7 mph 1015.7mb 42f 37f
1:06 3 7 mph 1015.8mb 42f 37f
1:00 6 7 mph 1015.9mb 42f 37f
12:54 5 6 mph 1015.9mb 42f 37f
12:48 2 6 mph 1015.7mb - -
12:42 2 3 mph 1015.7mb - -
12:36 2 3 mph 1015.6mb - -
12:30  -  3 mph 1015.5mb 42f 37f
12:24 2 6 mph 1015.5mb 42f 37f
12:18 1 8 mph 1015.5mb 42f 37f
12:12 2 5 mph 1015.6mb 42f 37f
12:06 1 9 mph 1015.7mb 42f 37f
12:00 6 9 mph 1015.8mb 42f 37f
mié 01/18 11:54 5 8 mph 1015.9mb 42f 37f
11:48 5 10 mph 1016mb 42f 37f
11:42 6 9 mph 1016mb 42f 37f
11:24 5 10 mph 1016.1mb 42f 37f
11:18 3 8 mph 1016.2mb 42f 37f
11:12 3 8 mph 1016.2mb 42f 37f
11:06 3 7 mph 1016.3mb 42f 37f
11:00 5 9 mph 1016.1mb 42f 37f
10:54 6 8 mph 1016mb 42f 37f
10:48 5 10 mph 1015.9mb 42f 37f
10:42 5 10 mph 1015.7mb 42f 37f
10:36 5 8 mph 1015.6mb 42f 37f
10:30 3 8 mph 1015.5mb 42f 37f
10:24 5 8 mph 1015.6mb 42f 37f
10:18 6 8 mph 1015.6mb 42f 37f
10:12 5 9 mph 1015.6mb 42f 37f
10:06 6 8 mph 1015.6mb 42f 37f
10:00 3 5 mph 1015.4mb 42f 37f
9:54 3 6 mph 1015.4mb 42f 37f
9:48 5 8 mph 1015.5mb 42f 37f
9:42 5 7 mph 1015.7mb 42f 37f
9:36 1 7 mph 1015.7mb 42f 37f
9:30 3 10 mph 1015.8mb 42f 37f
9:24 8 11 mph 1015.9mb 42f 37f
9:18 7 10 mph 1015.9mb 42f 37f
9:12 6 8 mph 1015.9mb 42f 37f
9:06 3 8 mph 1015.9mb 42f 37f
9:00 5 7 mph 1016.1mb 42f 37f
8:54 3 8 mph 1016.1mb 42f 37f
8:48 2 7 mph 1016.2mb 42f 37f
8:42 2 6 mph 1016.3mb 42f 37f
8:36 3 9 mph 1016.4mb 42f 37f
8:30 6 10 mph 1016.6mb 42f 37f
8:24 8 10 mph 1016.6mb 42f 37f
8:18 6 10 mph 1016.5mb 42f 37f
8:12 3 10 mph 1016.6mb 42f 37f
8:06 8 14 mph 1016.6mb 42f 37f
8:00 5 9 mph 1016.6mb 42f 37f
7:54 6 9 mph 1016.5mb 42f 37f
7:48 2 8 mph 1016.4mb 42f 37f
7:42 3 9 mph 1016.4mb 42f 37f
7:36 3 9 mph 1016.3mb 42f 37f
7:30 6 11 mph 1016.4mb 42f 37f
7:24 6 10 mph 1016.4mb 42f 37f
7:18 7 10 mph 1016.5mb 42f 38f
7:12 7 11 mph 1016.5mb 42f 38f
7:06 5 9 mph 1016.5mb 42f 38f
7:00 7 11 mph 1016.4mb 42f 38f
6:54 5 11 mph 1016.3mb 42f 38f
6:48 6 10 mph 1016.3mb 42f 38f
6:42 6 11 mph 1016.3mb 42f 38f
6:36 3 9 mph 1016.1mb 42f 38f
6:30 6 10 mph 1016.1mb 42f 38f
6:24 3 11 mph 1016mb 42f 38f
6:18 5 11 mph 1015.9mb 42f 38f
6:12 7 11 mph 1015.8mb 42f 38f
6:06 8 11 mph 1015.6mb 42f 38f
6:00 7 11 mph 1015.5mb 42f 38f
5:54 7 10 mph 1015.5mb 42f 38f
5:48 5 9 mph 1015.4mb 42f 39f
5:42 8 11 mph 1015.4mb 42f 39f
5:36 8 11 mph 1015.3mb 42f 39f
5:30 8 11 mph 1015.2mb 42f 39f
5:24 8 13 mph 1015mb 42f 39f
5:18 7 11 mph 1015mb 42f 39f
5:12 6 9 mph 1014.9mb 42f 39f
5:06 6 13 mph 1014.7mb 42f 39f
5:00 5 11 mph 1014.5mb 42f 39f
4:54 7 13 mph 1014.3mb 42f 39f
4:48 5 9 mph 1014.2mb 42f 40f
4:42 5 10 mph 1014mb 42f 40f
4:36 7 10 mph 1013.9mb 42f 40f
4:30 8 10 mph 1013.8mb 42f 40f
4:24 7 11 mph 1013.7mb 42f 40f
4:18 7 11 mph 1013.7mb 42f 40f
4:12 7 10 mph 1013.7mb 42f 40f
4:06 7 10 mph 1013.7mb 42f 40f
4:00 7 10 mph 1013.6mb 42f 40f
3:54 7 10 mph 1013.5mb 42f 40f
3:48 7 10 mph 1013.5mb 42f 40f
3:42 7 10 mph 1013.5mb 42f 40f
3:36 6 10 mph 1013.5mb 42f 40f
3:30 6 9 mph 1013.5mb 42f 40f
3:24 6 10 mph 1013.5mb 42f 40f
3:18 7 11 mph 1013.7mb 42f 40f
3:12 5 9 mph 1013.7mb 42f 40f
3:06 3 9 mph 1013.6mb 42f 40f
3:00 2 9 mph 1013.5mb 42f 40f
2:54 6 10 mph 1013.4mb 42f 40f
2:48 7 11 mph 1013.4mb 42f 40f
2:42 6 10 mph 1013.3mb 42f 40f
2:36 2 6 mph 1013.2mb 42f 40f
2:30 3 8 mph 1013.2mb 42f 40f
2:24 6 10 mph 1013.1mb 42f 40f
2:18 3 9 mph 1013mb 42f 40f
2:12 6 10 mph 1012.9mb 42f 40f
2:06 6 9 mph 1012.8mb 42f 41f
2:00 7 10 mph 1012.7mb 42f 41f
1:54 8 10 mph 1012.6mb 42f 41f
1:48 5 9 mph 1012.5mb 42f 41f
1:42 8 11 mph 1012.4mb 42f 41f
1:36 8 11 mph 1012.3mb 42f 41f
1:30 6 9 mph 1012.2mb 42f 41f
1:24 3 8 mph 1012.2mb 42f 41f
1:18 2 7 mph 1012.1mb 42f 41f
1:12 3 6 mph 1012mb 42f 41f
1:06 2 6 mph 1012mb 42f 41f
1:00 2 6 mph 1012mb 42f 41f
12:54 2 8 mph 1012mb 42f 41f
12:48 5 7 mph 1012mb 42f 41f
12:42 3 8 mph 1012mb 42f 41f
12:36 3 9 mph 1012mb 42f 41f
12:30 3 7 mph 1011.9mb 42f 41f
12:24 2 7 mph 1011.9mb 42f 41f
12:18 3 7 mph 1011.8mb 42f 41f
12:12 3 8 mph 1011.8mb 42f 40f
12:06 5 7 mph 1011.8mb 42f 40f
12:00 2 8 mph 1011.8mb 42f 40f
11:54 3 7 mph 1011.8mb 42f 40f
11:48 5 6 mph 1011.9mb 42f 40f
11:42 3 7 mph 1012mb 42f 40f
11:36 3 6 mph 1012.1mb 42f 40f
11:30 3 6 mph 1012.3mb 42f 40f
11:24 3 7 mph 1012.5mb 42f 39f
11:18 2 6 mph 1012.6mb 42f 39f
11:12 5 7 mph 1012.7mb 42f 39f
11:06 1 6 mph 1012.9mb 42f 39f
11:00 2 7 mph 1013.1mb 42f 39f
10:54 1 7 mph 1013.2mb 42f 39f
10:48 3 6 mph 1013.2mb 42f 39f
10:42 3 6 mph 1013.3mb 42f 39f
10:36 2 6 mph 1013.3mb 42f 39f
10:30 3 6 mph 1013.4mb 42f 39f
10:24 3 7 mph 1013.5mb 42f 39f
10:18 3 5 mph 1013.6mb 42f 39f
10:12 3 7 mph 1013.7mb 42f 39f
10:06 3 7 mph 1013.8mb 42f 39f
10:00 5 8 mph 1013.8mb 42f 39f
9:54 5 8 mph 1013.8mb 42f 39f
9:48 5 8 mph - - -
9:42 5 7 mph 1013.7mb 42f 39f
9:36 2 6 mph 1013.7mb 42f 39f
9:30 1 5 mph 1013.7mb 42f 39f
9:24 2 7 mph 1013.7mb 42f 39f
9:18 5 8 mph 1013.7mb 42f 39f
9:12 6 10 mph 1013.7mb 42f 39f
9:06 6 9 mph 1013.7mb 42f 39f
9:00 6 8 mph 1013.6mb 42f 39f
8:54 3 8 mph 1013.5mb 42f 39f
8:48 2 7 mph 1013.4mb 42f 39f
8:42 2 6 mph 1013.3mb 42f 39f
8:36 3 7 mph 1013.3mb 42f 39f
8:30 2 6 mph 1013.2mb 42f 39f
8:24 2 6 mph 1013.1mb 42f 39f
8:18 5 7 mph 1012.9mb 42f 39f
8:12 3 6 mph 1012.9mb 42f 39f
8:06 3 5 mph 1012.8mb 42f 39f
8:00 3 8 mph 1012.8mb 42f 39f
7:54 3 6 mph 1012.7mb 42f 39f
7:48 3 6 mph 1012.6mb 42f 39f
7:42 3 6 mph 1012.7mb 42f 39f
7:36 5 8 mph 1012.6mb 42f 39f
7:30 3 6 mph 1012.6mb 42f 39f
7:24 3 9 mph 1012.5mb 42f 39f
7:18 3 8 mph 1012.3mb 42f 39f
7:12 5 9 mph 1012.3mb 42f 39f
7:06 3 9 mph 1012.4mb 42f 39f
7:00 3 6 mph 1012.5mb 42f 39f
6:54 3 6 mph 1012.6mb 42f 39f
6:48 5 7 mph 1012.7mb 42f 39f
6:42 2 7 mph 1012.9mb 42f 39f
6:36 3 8 mph 1012.9mb 42f 39f
6:30 3 7 mph 1012.8mb 42f 39f
6:24 5 6 mph 1012.9mb 42f 39f
6:18 5 6 mph 1012.9mb 42f 38f
6:12 3 7 mph 1012.9mb 42f 38f
6:06 5 7 mph 1012.8mb 42f 38f
6:00 3 7 mph 1012.7mb 42f 38f
5:54 6 10 mph 1012.7mb 42f 38f
5:48 5 6 mph 1012.9mb 42f 38f
5:42 3 7 mph 1013.1mb 42f 38f
5:36 6 10 mph 1013.1mb 42f 39f
5:30 5 9 mph 1013.2mb 42f 39f
5:24 3 8 mph 1013.1mb 42f 39f
5:18 3 10 mph 1013.1mb 42f 39f
5:12 5 8 mph 1013mb 42f 39f
5:06 6 14 mph 1013mb 42f 39f
5:00 8 14 mph 1013mb 42f 39f
4:54 6 10 mph 1013.2mb 42f 39f
4:48 6 9 mph 1013.4mb 42f 39f
4:42 3 9 mph 1013.3mb 42f 39f
4:36 7 10 mph 1013.2mb 42f 39f
4:30 3 13 mph 1013.3mb 42f 39f
4:24 7 13 mph 1013mb 42f 39f
4:18 3 13 mph 1012.8mb 42f 39f
4:12 6 11 mph 1012.6mb 42f 40f
4:06 7 13 mph 1012.6mb 42f 40f
4:00 6 9 mph 1012.6mb 42f 39f
3:54 3 10 mph 1012.8mb 42f 39f
3:48 5 8 mph 1012.9mb 42f 40f
3:42 6 14 mph 1013mb 42f 40f
3:36 6 11 mph 1012.9mb 42f 40f
3:30 7 13 mph 1013mb 42f 40f
3:24 8 13 mph 1013mb 42f 40f
3:18 9 14 mph 1013.1mb 42f 40f
3:12 5 8 mph 1013.3mb 42f 39f
3:06 3 8 mph 1013.4mb 42f 39f
3:00 6 11 mph 1013.7mb 42f 39f
2:54 2 7 mph 1013.7mb 42f 39f
2:48 2 10 mph 1013.7mb 42f 39f
2:42 6 16 mph 1013.6mb 42f 39f
2:36 7 11 mph 1013.6mb 42f 39f
2:30 6 10 mph 1013.7mb 42f 39f
2:24 5 10 mph 1013.8mb 42f 39f
2:18 3 6 mph 1014.2mb 42f 39f
2:12 3 7 mph 1014.3mb 42f 39f
2:06 6 7 mph 1014.3mb 42f 39f
2:00 3 7 mph 1014.4mb 42f 39f
1:54 5 8 mph 1014.2mb 42f 39f
1:48 8 13 mph 1014.3mb 42f 39f
1:42 5 7 mph 1014.5mb 42f 39f
1:36 3 10 mph 1014.4mb 42f 39f
1:30 6 9 mph 1014.4mb 42f 39f
1:24 5 6 mph 1014.5mb 42f 39f
1:18 5 8 mph 1014.7mb 42f 40f
1:12 3 8 mph 1014.9mb 42f 40f
1:06 5 7 mph 1015mb 42f 40f
1:00 3 9 mph 1014.9mb 42f 40f
12:54 7 10 mph 1014.9mb 42f 40f
12:48 6 9 mph 1014.9mb - -
12:42 3 11 mph 1015mb 42f 39f
12:36 5 6 mph 1015mb 42f 39f
12:30 5 9 mph 1015.2mb 42f 39f
12:24 5 9 mph 1015.2mb 42f 39f
12:18 6 9 mph 1015.3mb 42f 39f
12:12 6 9 mph 1015.4mb 42f 39f
12:06 7 11 mph 1015.4mb 42f 39f
12:00 7 13 mph 1015.4mb 42f 39f
mar 01/17 11:54 9 11 mph 1015.7mb 42f 39f
11:48 8 13 mph 1015.8mb 42f 39f
11:42 6 9 mph 1016.1mb 42f 39f
11:36 7 9 mph 1016.2mb 42f 39f
11:30 6 8 mph 1016.1mb 42f 39f
11:24 6 7 mph 1016.5mb 42f 39f
11:18 2 7 mph 1016.8mb 42f 38f
11:12 2 8 mph 1016.9mb 42f 38f
11:06 3 7 mph 1017.1mb 42f 38f
11:00 7 9 mph 1017.1mb 42f 38f
10:54 3 6 mph 1017.4mb 42f 38f
10:48 2 3 mph 1017.8mb 42f 38f
10:42 2 6 mph 1017.8mb 42f 38f
10:36 3 6 mph 1017.7mb 42f 38f
10:30 2 6 mph 1017.8mb 42f 38f
10:24 2 5 mph 1017.7mb 42f 38f
10:18 2 5 mph 1017.6mb 42f 38f
10:12 2 6 mph 1017.6mb 42f 38f
10:06 3 8 mph 1017.4mb 42f 38f
10:00 6 9 mph 1017.4mb 42f 38f
9:54 6 9 mph 1017.4mb 42f 38f
9:48 6 8 mph 1017.6mb 42f 38f
9:42 6 10 mph 1017.8mb 42f 38f
9:36 6 11 mph 1017.8mb 42f 38f
9:30 8 10 mph 1017.8mb 42f 38f
9:24 5 10 mph 1018.2mb 42f 38f
9:18 6 14 mph 1018.3mb 42f 38f
9:12 6 11 mph 1017.9mb 42f 38f
9:06 9 13 mph 1018mb 42f 38f
9:00 7 11 mph 1018.7mb 42f 38f
8:54 5 6 mph 1019.1mb 42f 38f
8:48 3 7 mph 1019.1mb 42f 38f
8:42 3 7 mph 1019.1mb 42f 38f
8:36 2 9 mph 1019.1mb 42f 38f
8:30 5 9 mph 1019.1mb 42f 38f
8:24 6 8 mph 1018.9mb 42f 38f
8:18 5 8 mph 1019mb 42f 38f
8:12 3 5 mph 1019.1mb 41f 38f
8:06 3 7 mph 1019.4mb 41f 38f
8:00 6 8 mph 1019mb 42f 38f
7:54 7 9 mph 1019.3mb 42f 38f
7:48 5 6 mph 1019.8mb 42f 38f
7:42 2 5 mph 1020.1mb 42f 38f
7:36 3 6 mph 1019.9mb 42f 38f
7:30 3 6 mph 1019.9mb 42f 38f
7:24 2 7 mph 1019.8mb 41f 37f
7:18 2 7 mph 1019.8mb 41f 38f
7:12 5 6 mph 1019.7mb 42f 38f
7:06 3 5 mph 1020.3mb 42f 38f
7:00 5 6 mph 1020.1mb 41f 38f
6:54 3 5 mph 1020.4mb 41f 38f
6:48 3 5 mph 1020.6mb 41f 38f
6:42 2 5 mph 1020.5mb 41f 38f
6:36 5 6 mph 1020.3mb 42f 38f
6:30 1 3 mph 1020.5mb 42f 38f
6:24 2 3 mph 1020.5mb 42f 38f
6:18 2 6 mph 1020.3mb 42f 38f
6:12 5 8 mph 1020.1mb 42f 38f
6:06 5 7 mph 1020mb 42f 38f
6:00 6 9 mph 1020mb 42f 38f
5:54 6 10 mph 1020mb 42f 38f
5:48 7 10 mph 1020mb 42f 39f
5:42 6 8 mph 1020.2mb 42f 39f
5:36 6 7 mph 1020.2mb 42f 39f
5:30 5 9 mph 1020.3mb 42f 39f
5:24 5 6 mph 1020.5mb 42f 39f
5:18 6 8 mph 1020.5mb 42f 39f
5:12 5 7 mph 1020.5mb 42f 39f
5:06 5 8 mph 1020.6mb 42f 39f
5:00 7 9 mph 1020.5mb 42f 39f
4:54 6 7 mph 1020.5mb 42f 39f
4:48 6 7 mph 1020.6mb 42f 39f
4:42 3 7 mph 1020.9mb 42f 40f
4:36 3 5 mph 1020.9mb 42f 40f
4:30 3 5 mph 1020.8mb 42f 40f
4:24 5 6 mph 1020.7mb 42f 40f
4:18 2 6 mph 1020.6mb 42f 40f
4:12 3 5 mph 1020.6mb 42f 40f
4:06 5 6 mph 1020.7mb 42f 40f
4:00 5 6 mph 1020.6mb 42f 40f
3:54 3 5 mph 1020.6mb 42f 40f
3:48 3 6 mph 1020.7mb 42f 40f
3:42 3 5 mph 1020.8mb 42f 40f
3:36 3 5 mph 1020.9mb 42f 41f
3:30 3 5 mph 1021mb 42f 41f
3:24 1 3 mph 1021.2mb 42f 41f
3:18 1 2 mph 1021.1mb 42f 41f
3:12 2 3 mph 1021.1mb 42f 41f
3:06 2 5 mph 1021.1mb 42f 41f
3:00 2 5 mph 1021.1mb 42f 41f
2:54 5 7 mph 1021.1mb 42f 41f
2:48 3 5 mph 1021.1mb 42f 41f
2:42 5 6 mph 1021.1mb 42f 41f
2:36 5 6 mph 1021.1mb 42f 41f
2:30 3 5 mph 1021.1mb 42f 41f
2:24 1 6 mph 1021.1mb 42f 41f
2:18 6 8 mph 1021.1mb 42f 41f
2:12 3 7 mph 1021.1mb 42f 41f
2:06 6 9 mph 1021.1mb 42f 41f
2:00 3 6 mph 1021.1mb 42f 41f
1:54 5 7 mph 1021.2mb 42f 41f
1:48 6 8 mph 1021.2mb 42f 41f
1:42 7 8 mph 1021.1mb 42f 41f
1:36 5 7 mph 1021.2mb 42f 41f
1:30 6 7 mph 1021.2mb 42f 41f
1:24 5 8 mph 1021.2mb 42f 41f
1:18 6 7 mph 1021.3mb 42f 41f
1:12 5 6 mph 1021.5mb 42f 41f
1:06 5 6 mph 1021.5mb 42f 42f
1:00 5 6 mph 1021.7mb 42f 42f
12:54 3
mph
1021.6mb 42f 42f
12:48 2 3 mph 1021.7mb 42f 42f
12:42 2 3 mph 1021.7mb 42f 42f
12:36  -  2 mph 1021.8mb 42f 41f
12:30  -  3 mph 1021.9mb 42f 42f
12:24 2 3 mph 1022.1mb 42f 42f
12:18 2 3 mph 1022.1mb 42f 42f
12:12 2 3 mph 1022.2mb 42f 42f
12:06 1 2 mph 1022.2mb 42f 41f
12:00 2 5 mph 1022.4mb 42f 42f
11:54  -  5 mph 1022.4mb 42f 41f
11:48 2 5 mph 1022.5mb 42f 41f
11:42 2 3 mph 1022.6mb 42f 40f
11:36 2 3 mph 1022.7mb 42f 40f
11:30 2 3 mph 1022.8mb 42f 40f
11:24 2 3 mph 1022.9mb 42f 40f
11:18 3 5 mph 1023mb 42f 39f
11:12 2 3 mph 1023.1mb 42f 39f
11:06 2 3 mph 1023.2mb 42f 39f
11:00 1 3 mph 1023.5mb 42f 40f
10:54 1 2 mph 1023.6mb 42f 40f
10:48 2 5 mph 1023.6mb 42f 40f
10:42 3 5 mph 1023.7mb 42f 39f
10:36 3 6 mph 1023.8mb 42f 38f
10:30 5 6 mph 1023.8mb 42f 38f
10:24 3 5 mph 1024mb 42f 38f
10:18 2 5 mph 1023.9mb 42f 38f
10:12 3 5 mph 1024mb 42f 38f
10:06 3 5 mph 1024mb 41f 38f
10:00 2
mph
1024.1mb 42f 38f
9:54 2
mph
1024mb 42f 38f
9:48 2
mph
1023.9mb 42f 37f
9:42 2
mph
1023.9mb 42f 37f
9:36 1
mph
1023.9mb 42f 37f
9:30  -  1 mph 1023.9mb 42f 37f
9:24  -  1 mph 1023.8mb 42f 37f
9:18 1 2 mph 1023.7mb 42f 37f
9:12  -  1 mph 1023.8mb 42f 37f
9:06  -  2 mph 1023.8mb 42f 37f
9:00  -  2 mph 1023.8mb 42f 37f
8:54 1 2 mph 1024mb 42f 37f
8:48  -  2 mph 1023.9mb 42f 37f
8:42 1 3 mph 1023.8mb 42f 36f
8:36 3
mph
1023.8mb 42f 37f
8:30 1 3 mph 1023.7mb 42f 37f
8:24 3
mph
1023.7mb 42f 37f
8:18 2
mph
1023.6mb 42f 37f
8:12  -  mph 1023.6mb 42f 37f
8:06  -  1 mph 1023.5mb 42f 37f
8:00  -  1 mph 1023.5mb 41f 37f
7:54 1 2 mph 1023.6mb 42f 37f
7:48 1 2 mph 1023.4mb 41f 37f
7:42  -  2 mph 1023.3mb 41f 37f
7:36 1 2 mph 1023.2mb 41f 37f
7:30  -  2 mph 1023.3mb 41f 37f
7:24 1 2 mph 1023.3mb 41f 37f
7:18 1 3 mph 1023.2mb 42f 37f
7:12 2 3 mph 1023.2mb 41f 37f
7:06 2 3 mph 1023.2mb 41f 37f
7:00 2 3 mph 1023.1mb 41f 37f
6:54  -  3 mph 1023.1mb 42f 36f
6:48  -  2 mph 1023mb 41f 36f
6:42 2
mph
1022.8mb 42f 36f
6:36  -  1 mph 1023.1mb 41f 37f
6:30  -  1 mph 1023.3mb 40f 37f
6:24  -  2 mph 1023.3mb 41f 37f
6:18 2 3 mph 1023.1mb 41f 37f
6:12 1 2 mph 1023.2mb 41f 37f
6:06  -  1 mph 1023.2mb 42f 37f
6:00  -  1 mph 1023mb 42f 36f
5:54  -  1 mph 1023.1mb 42f 37f
5:48  -  mph 1023.2mb 42f 37f
5:42  -  1 mph 1023.3mb 42f 37f
5:36  -  2 mph 1023.3mb 42f 37f
5:30 1 2 mph 1023.3mb 42f 37f
5:24  -  1 mph 1023.2mb 42f 37f
5:18  -  1 mph 1023.2mb 42f 37f
5:12  -  1 mph 1023.1mb 42f 37f
5:06  -  2 mph 1023mb 41f 36f
5:00 1 2 mph 1023mb 41f 37f
4:54 2
mph
1022.9mb 41f 37f
4:48  -  1 mph 1022.9mb 42f 36f
4:42 1 2 mph 1023mb 42f 37f
4:36  -  3 mph 1022.9mb 42f 37f
4:30 2 3 mph 1022.9mb 42f 37f
4:24 1 2 mph 1022.8mb 42f 37f
4:18 1 2 mph 1022.7mb 42f 37f
4:12 1 2 mph 1022.7mb 42f 37f
4:06  -  1 mph 1022.7mb 42f 37f
4:00 2
mph
1022.8mb 42f 37f
3:54 2 3 mph 1023.1mb 42f 37f
3:48 3 5 mph 1023.1mb 42f 37f
3:42 2 3 mph 1023.2mb 42f 37f
3:36 2 3 mph 1023.1mb 42f 37f
3:30 2 3 mph 1023.2mb 42f 37f
3:24 2 3 mph 1023.3mb 42f 37f
3:18 1 2 mph 1023.4mb 42f 37f
3:12  -  2 mph 1023.5mb 42f 37f
3:06 2
mph
1023.4mb 42f 37f
3:00  -  3 mph 1023.4mb 42f 37f
2:54 1 5 mph 1023.5mb 42f 38f
2:48 2 3 mph 1023.5mb 42f 38f
2:42 1 3 mph 1023.6mb 42f 38f
2:36 2 3 mph 1023.5mb 42f 38f
2:30 2 3 mph 1023.6mb 42f 38f
2:24 2 3 mph 1023.7mb 42f 38f
2:18 2 3 mph 1023.6mb 42f 38f
2:12 2 3 mph 1023.5mb 42f 38f
2:06  -  2 mph 1023.5mb 42f 38f
2:00 2 5 mph 1023.6mb 42f 38f
1:54 2 5 mph 1023.7mb 42f 38f
1:48 2
mph
1023.6mb - -
1:42 1 3 mph 1023.8mb - -
1:36 2 5 mph 1023.8mb - -
1:30 1 3 mph 1024mb 42f 37f
1:24 2 3 mph 1024.1mb 42f 37f
1:18 2 5 mph 1024.1mb 42f 38f
1:12 1 6 mph 1024.1mb 42f 38f
1:06 3 6 mph 1024.1mb 42f 38f
1:00 2 5 mph 1024mb 42f 37f
12:54 2 5 mph 1023.9mb 42f 38f
12:48 3 5 mph - - -
12:42  -  3 mph - - -
12:36  -  2 mph - - -
12:30  -  3 mph 1024mb 42f 38f
12:24 2 5 mph 1024.1mb 42f 38f
12:18 2 6 mph 1024.2mb 42f 38f
12:12 2 6 mph 1024.3mb 42f 38f
12:06 2 5 mph 1024.3mb 42f 38f
12:00  -  6 mph 1024.4mb 42f 38f
lun 01/16 11:54 1 5 mph 1024.6mb 42f 38f
11:48 3 6 mph 1024.7mb 42f 38f
11:42 5 6 mph 1024.7mb 42f 38f
11:36 3 8 mph 1024.7mb 42f 38f
11:30 3 7 mph 1024.7mb 42f 38f
11:24 5 9 mph 1024.8mb 42f 38f
11:18 2 5 mph 1025mb 42f 37f
11:12 1 3 mph 1025mb 42f 37f
11:06  -  3 mph 1025.1mb 41f 37f
11:00 1 3 mph 1025.1mb 42f 37f
10:54 1 3 mph 1025.2mb 42f 37f
10:48  -  2 mph 1025.3mb 42f 37f
10:42 2 5 mph 1025.3mb 42f 37f
10:36  -  2 mph 1025.4mb 42f 37f
10:30  -  1 mph 1025.5mb 42f 37f
10:24 1 3 mph 1025.6mb 42f 37f
10:18 1 2 mph 1025.6mb 42f 37f
10:12  -  3 mph 1025.6mb 42f 37f
10:06 1 3 mph 1025.7mb 42f 37f
10:00  -  7 mph 1025.7mb 42f 36f
9:54 2 5 mph 1025.8mb 42f 36f
9:48 2 5 mph 1025.8mb 42f 36f
9:42 3 7 mph 1025.8mb 42f 36f
9:36 3 6 mph 1026mb 42f 36f
9:30 2 7 mph 1026.1mb 42f 36f
9:24 2 7 mph 1026.2mb 42f 36f
9:18 2 7 mph 1026.3mb 42f 36f
9:12 3 6 mph 1026.4mb 42f 36f
9:06 2 6 mph 1026.4mb 42f 36f
9:00 3 7 mph 1026.5mb 42f 36f
8:54 1 5 mph 1026.5mb 42f 36f
8:48 2 5 mph 1026.5mb 42f 36f
8:42 1 7 mph 1026.4mb 42f 36f
8:36 2 5 mph 1026.5mb 42f 36f
8:30 2 5 mph 1026.5mb 42f 36f
8:24 2 5 mph 1026.2mb 42f 36f
8:18 2 6 mph 1026.4mb 42f 36f
8:12 3 7 mph 1026.4mb 40f 36f
8:06 3 7 mph 1026.4mb 40f 36f
8:00 3 6 mph 1026.4mb 40f 36f
7:54 3 6 mph 1026.4mb 39f 36f
7:48 3 6 mph 1026.5mb 40f 36f
7:42 3 6 mph 1026.5mb 40f 36f
7:36 3 5 mph 1026.5mb 40f 36f
7:30 2 3 mph 1026.5mb 39f 35f
7:24 2 3 mph 1026.5mb 39f 35f
7:18 2 3 mph 1026.6mb 40f 35f
7:12 1 2 mph 1026.7mb 41f 35f
7:06  -  2 mph 1026.7mb 41f 35f
7:00  -  2 mph 1026.7mb 40f 35f
6:54 1 2 mph 1026.8mb 41f 36f
6:48 2
mph
1026.8mb 40f 36f
6:42 2 3 mph 1026.9mb 40f 35f
6:36 3 5 mph 1027mb 40f 36f
6:30 2 5 mph 1027mb 40f 36f
6:24 3 6 mph 1027mb 40f 36f
6:18 3 5 mph 1026.9mb 39f 36f
6:12 3 6 mph 1026.9mb 39f 36f
6:06 2 6 mph 1026.9mb 39f 36f
6:00 3 5 mph 1026.9mb 40f 36f
5:54 2 5 mph 1026.9mb 40f 36f
5:48 2 3 mph 1026.8mb 40f 36f
5:42 3 6 mph 1026.8mb 40f 36f
5:36 2 6 mph 1026.8mb 39f 36f
5:30 3 5 mph 1026.8mb 40f 36f
5:24 3 6 mph 1026.8mb 41f 36f
5:18 3 6 mph 1026.8mb 40f 36f
5:12 3
mph
1026.9mb 40f 36f
5:06 2 5 mph 1026.9mb 40f 36f
5:00 2 5 mph 1026.9mb 41f 36f
4:54 3 5 mph 1027mb 41f 36f
4:48 3 5 mph 1027mb 42f 36f
4:42 2 3 mph 1027.1mb 42f 36f
4:36 2 7 mph 1027.2mb 42f 37f
4:30 5 7 mph 1027.2mb 42f 37f
4:24 6 8 mph 1027.2mb 42f 37f
4:18 5 6 mph 1027.3mb 42f 37f
4:12 5 8 mph 1027.3mb 42f 37f
4:06 5 9 mph 1027.3mb 42f 37f
4:00 6 9 mph 1027.3mb 42f 37f
3:54 5 8 mph 1027.2mb 42f 37f
3:48 6 8 mph 1027.3mb 42f 37f
3:42 6 13 mph 1027.3mb 41f 37f
3:36 8 11 mph 1027.2mb 41f 37f
3:30 8 10 mph 1027.2mb 42f 37f
3:24 8 11 mph 1027.2mb 42f 37f
3:18 7 11 mph 1027.2mb 42f 37f
3:12 7 13 mph 1027.2mb 42f 37f
3:06 8 11 mph 1027.3mb 42f 37f
3:00 8 13 mph 1027.4mb 42f 38f
2:54 9 13 mph 1027.3mb 42f 38f
2:48 8 11 mph 1027.3mb 42f 38f
2:42 7 11 mph 1027.4mb 42f 38f
2:36 7 10 mph 1027.5mb 42f 38f
2:30 7 11 mph 1027.6mb 42f 38f
2:24 8 13 mph 1027.5mb 42f 38f
2:18 9 13 mph 1027.5mb 42f 38f
2:12 9 11 mph 1027.5mb 42f 38f
2:06 8 10 mph 1027.5mb 42f 38f
2:00 7 11 mph 1027.5mb 42f 39f
1:54 6 10 mph 1027.5mb 42f 39f
1:48 7 10 mph 1027.6mb 42f 39f
1:42 9 10 mph 1027.8mb 42f 38f
1:36 8 13 mph 1027.9mb 42f 38f
1:30 8 13 mph 1028mb 42f 38f
1:24 9 15 mph 1028.1mb 42f 38f
1:18 5 10 mph 1028.3mb 42f 39f
1:12 7 11 mph 1028.3mb 42f 38f
1:06 6 13 mph 1028.3mb 42f 38f
1:00 9 14 mph 1028.5mb 42f 37f
12:54 10 14 mph 1028.6mb 42f 38f
12:48 8 13 mph 1028.7mb 42f 38f
12:42 6 14 mph 1028.8mb 42f 38f
12:36 10 14 mph 1028.8mb 42f 37f
12:30 10 13 mph 1029mb 42f 37f
12:24 6 9 mph 1029.1mb 42f 38f
12:18 7 11 mph 1029.1mb 42f 37f
12:12 9 14 mph 1029.2mb 42f 37f
12:06 9 13 mph 1029.3mb 42f 37f
12:00 7 13 mph 1029.4mb 42f 38f
11:54 8 11 mph 1029.6mb 42f 37f
11:48 8 14 mph 1029.6mb 42f 37f
11:42 8 11 mph 1029.8mb 42f 37f
11:36 8 11 mph 1029.9mb 42f 37f
11:30 7 13 mph 1030mb 42f 36f
11:24 7 11 mph 1030.1mb 42f 36f
11:18 9 11 mph 1030.2mb 42f 36f
11:12 6 9 mph 1030.2mb 42f 37f
11:06 5 8 mph 1030.2mb 42f 37f
11:00 7 10 mph 1030.3mb 42f 36f
10:54 7 9 mph 1030.4mb 42f 36f
10:48 6 8 mph 1030.5mb 42f 35f
10:42 2 5 mph 1030.6mb 42f 34f
10:36 1 2 mph 1030.8mb 42f 32f
10:30 1 2 mph 1030.9mb 42f 31f
10:24 2
mph
1031mb 42f 31f
10:18 2
mph
1031.1mb 42f 31f
10:12 2 5 mph 1031.1mb 42f 31f
10:06 2 5 mph 1031.2mb 42f 30f
10:00 2 6 mph 1031.2mb 42f 30f
9:54 2 5 mph 1031.3mb 42f 30f
9:48 2 6 mph 1031.3mb 42f 30f
9:42 3 6 mph 1031.2mb 42f 29f
9:36 2 7 mph 1031.2mb 42f 28f
9:30 3 6 mph 1031.1mb 42f 28f
9:24 5 6 mph 1031.1mb 42f 27f
9:18 3 6 mph 1031.1mb 42f 27f
9:12 3 5 mph 1031.1mb 42f 26f
9:06 5 6 mph 1031mb 42f 25f
9:00 3 7 mph 1031mb 42f 25f
8:54 7 9 mph 1031mb 42f 25f
8:48 7 9 mph 1031mb 42f 24f
8:42 5 9 mph 1031mb 42f 24f
8:36 6 8 mph 1031.1mb 42f 24f
8:30 6 8 mph 1031.1mb 42f 23f
8:24 5 6 mph 1031mb 42f 23f
8:18 3 7 mph 1030.9mb 42f 23f
8:12 6 8 mph 1030.9mb 42f 23f
8:06 5 7 mph 1030.8mb 42f 23f
8:00 5 8 mph 1030.9mb 42f 22f
7:54 6 10 mph 1030.9mb 42f 22f
7:48 6 10 mph 1030.9mb 42f 22f
7:42 6 9 mph 1030.9mb 42f 22f
7:36 6 8 mph 1030.8mb 41f 22f
7:30 6 8 mph 1030.8mb 40f 22f
7:24 5 7 mph 1030.7mb 40f 22f
7:18 3 6 mph 1030.7mb 40f 22f
7:12 5 7 mph 1030.6mb 40f 22f
7:06 3 7 mph 1030.6mb 40f 22f
7:00 6 8 mph 1030.8mb 40f 22f
6:54 7 8 mph 1030.8mb 40f 22f
6:48 6 8 mph 1030.8mb 40f 22f
6:42 6 9 mph 1030.7mb 40f 22f
6:36 5 7 mph 1030.7mb 40f 22f
6:30 6 8 mph 1030.7mb 40f 22f
6:24 6 9 mph 1030.6mb 40f 22f
6:18 6 9 mph 1030.7mb 40f 22f
6:12 7 9 mph 1030.7mb 40f 22f
6:06 6 9 mph 1030.6mb 40f 22f
6:00 6 8 mph 1030.6mb 40f 22f
5:54 6 9 mph 1030.4mb 40f 22f
5:48 6 8 mph 1030.4mb 40f 22f
5:42 5 8 mph 1030.4mb 40f 23f
5:36 6 8 mph 1030.4mb 40f 23f
5:30 5 7 mph 1030.4mb 40f 23f
5:24 6 9 mph 1030.4mb 40f 23f
5:18 6 8 mph 1030.4mb 40f 23f
5:12 6 8 mph 1030.4mb 41f 23f
5:06 6 8 mph 1030.4mb 41f 23f
5:00 6 8 mph 1030.4mb 41f 23f
4:54 6 8 mph 1030.3mb 41f 23f
4:48 6 9 mph 1030.4mb 41f 23f
4:42 6 8 mph 1030.5mb 41f 23f
4:36 5 7 mph 1030.4mb 41f 23f
4:30 5 7 mph 1030.4mb 41f 23f
4:24 5 7 mph 1030.4mb 41f 23f
4:18 6 8 mph 1030.5mb 42f 24f
4:12 5 7 mph 1030.5mb 42f 24f
4:06 5 8 mph 1030.6mb 42f 24f
4:00 5 8 mph 1030.6mb 42f 24f
3:54 6 7 mph 1030.6mb 42f 24f
3:48 5 7 mph 1030.6mb 42f 24f
3:42 5 8 mph 1030.7mb 42f 24f
3:36 6 9 mph 1030.7mb 42f 24f
3:30 5 7 mph 1030.8mb 42f 24f
3:24 6 8 mph 1030.7mb 42f 24f
3:18 7 8 mph 1030.7mb 42f 24f
3:12 5 7 mph 1030.8mb 42f 24f
3:06 3 8 mph 1030.9mb 42f 24f
3:00 7 9 mph 1030.8mb 42f 24f
2:54 5 7 mph 1030.7mb 42f 24f
2:48 3 6 mph 1030.7mb 42f 24f
2:42 5 7 mph 1030.7mb 42f 25f
2:36 6 7 mph 1030.6mb 42f 25f
2:30 3 6 mph 1030.7mb 42f 25f
2:24 5 6 mph 1030.6mb 42f 25f
2:18 3 7 mph 1030.7mb 42f 25f
2:12 5 7 mph 1030.7mb 42f 25f
2:06 3 6 mph 1030.7mb 42f 25f
2:00 6 8 mph 1030.8mb 42f 25f
1:54 6 8 mph 1030.8mb 42f 25f
1:48 5 6 mph 1030.6mb - -
1:42 5 7 mph 1030.3mb - -
1:36 6 7 mph 1030.2mb - -
1:30 5 6 mph 1030.2mb 42f 25f
1:24 5 7 mph 1030.2mb 42f 25f
1:18 5 7 mph 1030.1mb 42f 26f
1:12 5 6 mph 1030mb 42f 26f
1:06 3 6 mph 1030mb 42f 26f
1:00 5 7 mph 1030mb 42f 26f
12:54 2 6 mph 1029.9mb 42f 26f
12:48 6 8 mph 1029.8mb 42f 26f
12:42 5 7 mph 1029.9mb 42f 26f
12:36 3 7 mph 1029.9mb 42f 26f
12:30 5 7 mph 1029.8mb 42f 26f
12:24 3 6 mph 1029.8mb 42f 26f
12:18 6 7 mph 1029.6mb 42f 26f
12:12 5 6 mph 1029.6mb 42f 26f
12:06 3 7 mph 1029.5mb 42f 26f
12:00 6 7 mph 1029.4mb 42f 27f
dom 01/15 11:54 3 7 mph 1029.5mb 42f 26f
11:48 6 7 mph 1029.3mb 42f 27f
11:42 3 6 mph 1029.5mb 42f 27f
11:36 3 7 mph 1029.6mb 42f 27f
11:30 3 6 mph 1029.6mb 42f 27f
11:24 5 7 mph 1029.6mb 42f 27f
11:18 3 6 mph 1029.6mb 42f 27f
11:12 5 6 mph 1029.5mb 42f 27f
11:06 3 5 mph 1029.4mb 42f 27f
11:00 5 6 mph 1029.4mb 42f 27f
10:54 5 6 mph 1029.3mb 42f 28f
10:48 5 6 mph 1029.2mb 42f 28f
10:42 5 6 mph 1029.1mb 42f 28f
10:36 3 7 mph 1029.1mb 42f 28f
10:30 3 6 mph 1029.2mb 42f 28f
10:24 3 7 mph 1029.2mb 42f 28f
10:18 3 6 mph 1029.2mb 42f 28f
10:12 3 7 mph 1029.1mb 42f 28f
10:06 7
mph
1029.1mb 42f 28f
10:00 5 6 mph 1029.1mb 42f 28f
9:54 5
mph
1029mb 42f 28f
9:48 3 5 mph 1029mb 42f 28f
9:42 3 6 mph 1029.1mb 42f 28f
9:36 5 6 mph 1029mb 42f 29f
9:30 5 6 mph 1029mb 42f 29f
9:24 5 6 mph 1029.1mb 42f 29f
9:18 2 3 mph 1029.3mb 42f 29f
9:12 2 5 mph 1029.2mb 42f 29f
9:06 2 5 mph 1029.4mb 42f 29f
9:00 5 6 mph 1029.4mb 42f 29f
8:54 5 6 mph 1029.2mb 42f 29f
8:48 5 6 mph 1029.3mb 42f 29f
8:42 5 6 mph 1029.4mb 42f 30f
8:36 2 5 mph 1029.3mb 42f 30f
8:30 5 6 mph 1029mb 42f 30f
8:24 3
mph
1028.7mb 42f 30f
8:18 2 3 mph 1028.6mb 43f 30f
8:12 2 3 mph 1028.4mb 43f 30f
8:06 3 6 mph 1028.4mb 43f 30f
8:00 5
mph
1028.5mb 43f 30f
7:54 3 5 mph 1028.5mb 42f 31f
7:48  -  2 mph 1028.5mb 42f 31f
7:42 2
mph
1028.5mb 42f 31f
7:36 2 3 mph 1028.4mb 42f 31f
7:30 3
mph
1028.4mb 42f 31f
7:24 2
mph
1028.3mb 42f 31f
7:18 2 5 mph 1028.1mb 42f 32f
7:12 3 5 mph 1027.9mb 42f 32f
7:06 1
mph
1027.9mb 41f 32f
7:00 1 2 mph 1027.9mb 40f 32f
6:54 2 3 mph 1027.8mb 40f 32f
6:48 2 3 mph 1027.8mb 39f 32f
6:42 2 3 mph 1027.6mb 39f 33f
6:36 2 3 mph 1027.6mb 39f 33f
6:30 3 5 mph 1027.6mb 39f 33f
6:24 2 3 mph 1027.6mb 40f 33f
6:18 1 5 mph 1027.5mb 40f 33f
6:12 3 5 mph 1027.4mb 40f 33f
6:06 2 3 mph 1027.4mb 40f 33f
6:00  -  3 mph 1027.3mb 39f 34f
5:54 2 5 mph 1027.2mb 39f 34f
5:48 5 6 mph 1027.2mb 40f 34f
5:42 3
mph
1027.1mb 39f 35f
5:36 2
mph
1027.1mb 39f 36f
5:30 1 2 mph 1027mb 39f 36f
5:24 1
mph
1027mb 40f 35f
5:18  -  3 mph 1027mb 40f 36f
5:12 3 5 mph 1026.9mb 39f 36f
5:06 2 3 mph 1026.8mb 39f 37f
5:00 2 3 mph 1026.7mb 39f 37f
4:54 2 5 mph 1026.6mb 39f 37f
4:48 2 5 mph 1026.5mb 40f 37f
4:42 2 6 mph 1026.6mb 40f 37f
4:36 6 7 mph 1026.5mb 40f 38f
4:30 6
mph
1026.3mb 40f 38f
4:24 2 5 mph 1026.3mb 41f 38f
4:18 3 6 mph 1026.3mb 40f 39f
4:12 5 6 mph 1026.3mb 40f 39f
4:06 5 7 mph 1026.2mb 41f 39f
4:00 3 7 mph 1026.2mb 41f 40f
3:54 3 6 mph 1026.2mb 42f 40f
3:48 5 7 mph 1026.2mb 42f 39f
3:42 6 7 mph 1026.1mb 42f 39f
3:36 2 6 mph 1026.1mb 41f 40f
3:30 5 6 mph 1025.9mb 42f 40f
3:24 3 8 mph 1025.9mb 41f 40f
3:18 5 7 mph 1025.9mb 42f 40f
3:12 5 8 mph 1025.8mb 42f 39f